sensor_id;sensor_type;location;lat;lon;timestamp;temperature;humidity
58469;DHT22;44257;44.804;10.220;2024-03-08T00:00:16;6.50;99.90
58469;DHT22;44257;44.804;10.220;2024-03-08T00:02:47;6.80;99.90
58469;DHT22;44257;44.804;10.220;2024-03-08T00:05:14;7.00;99.90
58469;DHT22;44257;44.804;10.220;2024-03-08T00:07:41;7.20;99.90
58469;DHT22;44257;44.804;10.220;2024-03-08T00:10:09;7.30;99.90
58469;DHT22;44257;44.804;10.220;2024-03-08T00:12:39;7.50;99.90
58469;DHT22;44257;44.804;10.220;2024-03-08T00:15:12;7.60;99.90
58469;DHT22;44257;44.804;10.220;2024-03-08T00:17:42;7.70;99.90
58469;DHT22;44257;44.804;10.220;2024-03-08T00:20:08;7.70;99.90
58469;DHT22;44257;44.804;10.220;2024-03-08T00:22:35;7.70;99.90
58469;DHT22;44257;44.804;10.220;2024-03-08T00:25:02;7.70;99.90
58469;DHT22;44257;44.804;10.220;2024-03-08T00:27:28;7.70;99.90
58469;DHT22;44257;44.804;10.220;2024-03-08T00:29:59;7.70;99.90
58469;DHT22;44257;44.804;10.220;2024-03-08T00:32:26;7.90;99.90
58469;DHT22;44257;44.804;10.220;2024-03-08T00:34:56;7.90;99.90
58469;DHT22;44257;44.804;10.220;2024-03-08T00:37:22;7.90;99.90
58469;DHT22;44257;44.804;10.220;2024-03-08T00:39:48;8.00;99.90
58469;DHT22;44257;44.804;10.220;2024-03-08T00:42:18;8.10;99.90
58469;DHT22;44257;44.804;10.220;2024-03-08T00:44:44;8.00;99.90
58469;DHT22;44257;44.804;10.220;2024-03-08T00:47:10;8.00;99.90
58469;DHT22;44257;44.804;10.220;2024-03-08T00:49:37;8.00;99.90
58469;DHT22;44257;44.804;10.220;2024-03-08T00:52:06;8.00;99.90
58469;DHT22;44257;44.804;10.220;2024-03-08T00:54:33;8.00;99.90
58469;DHT22;44257;44.804;10.220;2024-03-08T00:56:59;7.90;99.90
58469;DHT22;44257;44.804;10.220;2024-03-08T00:59:31;7.80;99.90
58469;DHT22;44257;44.804;10.220;2024-03-08T01:01:59;7.70;99.90
58469;DHT22;44257;44.804;10.220;2024-03-08T01:04:26;7.80;99.90
58469;DHT22;44257;44.804;10.220;2024-03-08T01:06:58;7.80;99.90
58469;DHT22;44257;44.804;10.220;2024-03-08T01:09:24;7.60;99.90
58469;DHT22;44257;44.804;10.220;2024-03-08T01:11:51;7.50;99.90
58469;DHT22;44257;44.804;10.220;2024-03-08T01:14:20;7.40;99.90
58469;DHT22;44257;44.804;10.220;2024-03-08T01:16:48;7.30;99.90
58469;DHT22;44257;44.804;10.220;2024-03-08T01:19:15;7.30;99.90
58469;DHT22;44257;44.804;10.220;2024-03-08T01:21:41;7.20;99.90
58469;DHT22;44257;44.804;10.220;2024-03-08T01:24:07;7.10;99.90
58469;DHT22;44257;44.804;10.220;2024-03-08T01:26:33;7.00;99.90
58469;DHT22;44257;44.804;10.220;2024-03-08T01:29:02;7.00;99.90
58469;DHT22;44257;44.804;10.220;2024-03-08T01:31:29;6.80;99.90
58469;DHT22;44257;44.804;10.220;2024-03-08T01:33:56;6.80;99.90
58469;DHT22;44257;44.804;10.220;2024-03-08T01:36:22;6.70;99.90
58469;DHT22;44257;44.804;10.220;2024-03-08T01:38:49;6.70;99.90
58469;DHT22;44257;44.804;10.220;2024-03-08T01:41:15;6.60;99.90
58469;DHT22;44257;44.804;10.220;2024-03-08T01:43:43;6.60;99.90
58469;DHT22;44257;44.804;10.220;2024-03-08T01:46:11;6.60;99.90
58469;DHT22;44257;44.804;10.220;2024-03-08T01:48:38;6.60;99.90
58469;DHT22;44257;44.804;10.220;2024-03-08T01:51:06;6.60;99.90
58469;DHT22;44257;44.804;10.220;2024-03-08T01:53:34;6.50;99.90
58469;DHT22;44257;44.804;10.220;2024-03-08T01:56:01;6.40;99.90
58469;DHT22;44257;44.804;10.220;2024-03-08T01:58:29;6.30;99.90
58469;DHT22;44257;44.804;10.220;2024-03-08T02:00:56;6.20;99.90
58469;DHT22;44257;44.804;10.220;2024-03-08T02:03:23;6.20;99.90
58469;DHT22;44257;44.804;10.220;2024-03-08T02:05:49;6.10;99.90
58469;DHT22;44257;44.804;10.220;2024-03-08T02:08:17;6.10;99.90
58469;DHT22;44257;44.804;10.220;2024-03-08T02:10:44;6.00;99.90
58469;DHT22;44257;44.804;10.220;2024-03-08T02:13:11;6.00;99.90
58469;DHT22;44257;44.804;10.220;2024-03-08T02:16:03;5.90;99.90
58469;DHT22;44257;44.804;10.220;2024-03-08T02:18:30;5.80;99.90
58469;DHT22;44257;44.804;10.220;2024-03-08T02:21:01;5.70;99.90
58469;DHT22;44257;44.804;10.220;2024-03-08T02:23:30;5.70;99.90
58469;DHT22;44257;44.804;10.220;2024-03-08T02:25:57;5.80;99.90
58469;DHT22;44257;44.804;10.220;2024-03-08T02:28:24;5.80;99.90
58469;DHT22;44257;44.804;10.220;2024-03-08T02:30:54;5.80;99.90
58469;DHT22;44257;44.804;10.220;2024-03-08T02:33:22;5.80;99.90
58469;DHT22;44257;44.804;10.220;2024-03-08T02:35:48;5.80;99.90
58469;DHT22;44257;44.804;10.220;2024-03-08T02:38:19;5.80;99.90
58469;DHT22;44257;44.804;10.220;2024-03-08T02:40:46;5.70;99.90
58469;DHT22;44257;44.804;10.220;2024-03-08T02:43:14;5.70;99.90
58469;DHT22;44257;44.804;10.220;2024-03-08T02:45:43;5.70;99.90
58469;DHT22;44257;44.804;10.220;2024-03-08T02:48:13;5.70;99.90
58469;DHT22;44257;44.804;10.220;2024-03-08T02:50:39;5.80;99.90
58469;DHT22;44257;44.804;10.220;2024-03-08T02:53:06;5.90;99.90
58469;DHT22;44257;44.804;10.220;2024-03-08T02:55:32;5.90;99.90
58469;DHT22;44257;44.804;10.220;2024-03-08T02:58:02;5.90;99.90
58469;DHT22;44257;44.804;10.220;2024-03-08T03:00:34;6.00;99.90
58469;DHT22;44257;44.804;10.220;2024-03-08T03:03:00;6.10;99.90
58469;DHT22;44257;44.804;10.220;2024-03-08T03:05:29;6.10;99.90
58469;DHT22;44257;44.804;10.220;2024-03-08T03:07:56;6.20;99.90
58469;DHT22;44257;44.804;10.220;2024-03-08T03:10:24;6.20;99.90
58469;DHT22;44257;44.804;10.220;2024-03-08T03:12:50;6.30;99.90
58469;DHT22;44257;44.804;10.220;2024-03-08T03:15:16;6.30;99.90
58469;DHT22;44257;44.804;10.220;2024-03-08T03:17:50;6.30;99.90
58469;DHT22;44257;44.804;10.220;2024-03-08T03:20:19;6.40;99.90
58469;DHT22;44257;44.804;10.220;2024-03-08T03:23:06;6.40;99.90
58469;DHT22;44257;44.804;10.220;2024-03-08T03:25:34;6.30;99.90
58469;DHT22;44257;44.804;10.220;2024-03-08T03:28:02;6.40;99.90
58469;DHT22;44257;44.804;10.220;2024-03-08T03:30:28;6.40;99.90
58469;DHT22;44257;44.804;10.220;2024-03-08T03:33:02;6.50;99.90
58469;DHT22;44257;44.804;10.220;2024-03-08T03:35:32;6.60;99.90
58469;DHT22;44257;44.804;10.220;2024-03-08T03:37:58;6.60;99.90
58469;DHT22;44257;44.804;10.220;2024-03-08T03:40:30;6.70;99.90
58469;DHT22;44257;44.804;10.220;2024-03-08T03:42:57;6.90;99.90
58469;DHT22;44257;44.804;10.220;2024-03-08T03:45:26;7.00;99.90
58469;DHT22;44257;44.804;10.220;2024-03-08T03:47:51;7.10;99.90
58469;DHT22;44257;44.804;10.220;2024-03-08T03:50:18;7.20;99.90
58469;DHT22;44257;44.804;10.220;2024-03-08T03:52:48;7.20;99.90
58469;DHT22;44257;44.804;10.220;2024-03-08T03:55:15;7.30;99.90
58469;DHT22;44257;44.804;10.220;2024-03-08T03:57:41;7.40;99.90
58469;DHT22;44257;44.804;10.220;2024-03-08T04:00:07;7.50;99.90
58469;DHT22;44257;44.804;10.220;2024-03-08T04:02:40;7.50;99.90
58469;DHT22;44257;44.804;10.220;2024-03-08T04:05:10;7.60;99.90
58469;DHT22;44257;44.804;10.220;2024-03-08T04:07:37;7.60;99.90
58469;DHT22;44257;44.804;10.220;2024-03-08T04:10:05;7.70;99.90
58469;DHT22;44257;44.804;10.220;2024-03-08T04:12:35;7.70;99.90
58469;DHT22;44257;44.804;10.220;2024-03-08T04:15:02;7.60;99.90
58469;DHT22;44257;44.804;10.220;2024-03-08T04:17:28;7.60;99.90
58469;DHT22;44257;44.804;10.220;2024-03-08T04:19:54;7.60;99.90
58469;DHT22;44257;44.804;10.220;2024-03-08T04:22:20;7.60;99.90
58469;DHT22;44257;44.804;10.220;2024-03-08T04:24:46;7.60;99.90
58469;DHT22;44257;44.804;10.220;2024-03-08T04:27:12;7.60;99.90
58469;DHT22;44257;44.804;10.220;2024-03-08T04:29:40;7.60;99.90
58469;DHT22;44257;44.804;10.220;2024-03-08T04:32:06;7.60;99.90
58469;DHT22;44257;44.804;10.220;2024-03-08T04:34:34;7.60;99.90
58469;DHT22;44257;44.804;10.220;2024-03-08T04:37:01;7.60;99.90
58469;DHT22;44257;44.804;10.220;2024-03-08T04:39:28;7.60;99.90
58469;DHT22;44257;44.804;10.220;2024-03-08T04:41:56;7.60;99.90
58469;DHT22;44257;44.804;10.220;2024-03-08T04:44:23;7.60;99.90
58469;DHT22;44257;44.804;10.220;2024-03-08T04:46:50;7.60;99.90
58469;DHT22;44257;44.804;10.220;2024-03-08T04:49:16;7.60;99.90
58469;DHT22;44257;44.804;10.220;2024-03-08T04:51:42;7.60;99.90
58469;DHT22;44257;44.804;10.220;2024-03-08T04:54:08;7.60;99.90
58469;DHT22;44257;44.804;10.220;2024-03-08T04:56:34;7.60;99.90
58469;DHT22;44257;44.804;10.220;2024-03-08T04:59:00;7.60;99.90
58469;DHT22;44257;44.804;10.220;2024-03-08T05:01:26;7.60;99.90
58469;DHT22;44257;44.804;10.220;2024-03-08T05:03:51;7.60;99.90
58469;DHT22;44257;44.804;10.220;2024-03-08T05:06:21;7.60;99.90
58469;DHT22;44257;44.804;10.220;2024-03-08T05:08:47;7.60;99.90
58469;DHT22;44257;44.804;10.220;2024-03-08T05:11:12;7.60;99.90
58469;DHT22;44257;44.804;10.220;2024-03-08T05:13:40;7.60;99.90
58469;DHT22;44257;44.804;10.220;2024-03-08T05:16:06;7.60;99.90
58469;DHT22;44257;44.804;10.220;2024-03-08T05:18:35;7.50;99.90
58469;DHT22;44257;44.804;10.220;2024-03-08T05:21:02;7.50;99.90
58469;DHT22;44257;44.804;10.220;2024-03-08T05:23:30;7.50;99.90
58469;DHT22;44257;44.804;10.220;2024-03-08T05:25:56;7.50;99.90
58469;DHT22;44257;44.804;10.220;2024-03-08T05:28:23;7.50;99.90
58469;DHT22;44257;44.804;10.220;2024-03-08T05:30:49;7.50;99.90
58469;DHT22;44257;44.804;10.220;2024-03-08T05:33:14;7.50;99.90
58469;DHT22;44257;44.804;10.220;2024-03-08T05:35:40;7.50;99.90
58469;DHT22;44257;44.804;10.220;2024-03-08T05:38:06;7.50;99.90
58469;DHT22;44257;44.804;10.220;2024-03-08T05:40:32;7.50;99.90
58469;DHT22;44257;44.804;10.220;2024-03-08T05:42:59;7.40;99.90
58469;DHT22;44257;44.804;10.220;2024-03-08T05:45:27;7.40;99.90
58469;DHT22;44257;44.804;10.220;2024-03-08T05:47:53;7.40;99.90
58469;DHT22;44257;44.804;10.220;2024-03-08T05:50:19;7.40;99.90
58469;DHT22;44257;44.804;10.220;2024-03-08T05:52:46;7.40;99.90
58469;DHT22;44257;44.804;10.220;2024-03-08T05:55:13;7.40;99.90
58469;DHT22;44257;44.804;10.220;2024-03-08T05:57:41;7.40;99.90
58469;DHT22;44257;44.804;10.220;2024-03-08T06:00:08;7.40;99.90
58469;DHT22;44257;44.804;10.220;2024-03-08T06:02:39;7.50;99.90
58469;DHT22;44257;44.804;10.220;2024-03-08T06:05:10;7.50;99.90
58469;DHT22;44257;44.804;10.220;2024-03-08T06:07:37;7.50;99.90
58469;DHT22;44257;44.804;10.220;2024-03-08T06:10:08;7.60;99.90
58469;DHT22;44257;44.804;10.220;2024-03-08T06:12:36;7.60;99.90
58469;DHT22;44257;44.804;10.220;2024-03-08T06:15:08;7.50;99.90
58469;DHT22;44257;44.804;10.220;2024-03-08T06:17:41;7.40;99.90
58469;DHT22;44257;44.804;10.220;2024-03-08T06:20:07;7.30;99.90
58469;DHT22;44257;44.804;10.220;2024-03-08T06:22:39;7.20;99.90
58469;DHT22;44257;44.804;10.220;2024-03-08T06:25:10;7.00;99.90
58469;DHT22;44257;44.804;10.220;2024-03-08T06:27:41;7.00;99.90
58469;DHT22;44257;44.804;10.220;2024-03-08T06:30:09;6.90;99.90
58469;DHT22;44257;44.804;10.220;2024-03-08T06:32:36;6.90;99.90
58469;DHT22;44257;44.804;10.220;2024-03-08T06:35:04;6.90;99.90
58469;DHT22;44257;44.804;10.220;2024-03-08T06:37:33;7.00;99.90
58469;DHT22;44257;44.804;10.220;2024-03-08T06:40:00;7.00;99.90
58469;DHT22;44257;44.804;10.220;2024-03-08T06:42:30;7.00;99.90
58469;DHT22;44257;44.804;10.220;2024-03-08T06:45:01;7.10;99.90
58469;DHT22;44257;44.804;10.220;2024-03-08T06:47:36;7.20;99.90
58469;DHT22;44257;44.804;10.220;2024-03-08T06:50:02;7.20;99.90
58469;DHT22;44257;44.804;10.220;2024-03-08T06:52:29;7.30;99.90
58469;DHT22;44257;44.804;10.220;2024-03-08T06:54:55;7.30;99.90
58469;DHT22;44257;44.804;10.220;2024-03-08T06:57:22;7.30;99.90
58469;DHT22;44257;44.804;10.220;2024-03-08T06:59:49;7.30;99.90
58469;DHT22;44257;44.804;10.220;2024-03-08T07:02:15;7.40;99.90
58469;DHT22;44257;44.804;10.220;2024-03-08T07:04:41;7.50;99.90
58469;DHT22;44257;44.804;10.220;2024-03-08T07:07:07;7.60;99.90
58469;DHT22;44257;44.804;10.220;2024-03-08T07:09:36;7.60;99.90
58469;DHT22;44257;44.804;10.220;2024-03-08T07:12:02;7.70;99.90
58469;DHT22;44257;44.804;10.220;2024-03-08T07:14:28;7.80;99.90
58469;DHT22;44257;44.804;10.220;2024-03-08T07:16:54;8.00;99.90
58469;DHT22;44257;44.804;10.220;2024-03-08T07:19:21;8.10;99.90
58469;DHT22;44257;44.804;10.220;2024-03-08T07:21:47;8.30;99.90
58469;DHT22;44257;44.804;10.220;2024-03-08T07:24:13;8.40;99.90
58469;DHT22;44257;44.804;10.220;2024-03-08T07:26:43;8.40;99.90
58469;DHT22;44257;44.804;10.220;2024-03-08T07:29:09;8.50;99.90
58469;DHT22;44257;44.804;10.220;2024-03-08T07:31:35;8.50;99.90
58469;DHT22;44257;44.804;10.220;2024-03-08T07:34:16;8.50;99.90
58469;DHT22;44257;44.804;10.220;2024-03-08T07:36:42;8.50;99.90
58469;DHT22;44257;44.804;10.220;2024-03-08T07:39:08;8.60;99.90
58469;DHT22;44257;44.804;10.220;2024-03-08T07:41:40;8.60;99.90
58469;DHT22;44257;44.804;10.220;2024-03-08T07:44:09;8.70;99.90
58469;DHT22;44257;44.804;10.220;2024-03-08T07:46:35;8.80;99.90
58469;DHT22;44257;44.804;10.220;2024-03-08T07:49:02;8.80;99.90
58469;DHT22;44257;44.804;10.220;2024-03-08T07:51:28;8.90;99.90
58469;DHT22;44257;44.804;10.220;2024-03-08T07:53:54;9.00;99.90
58469;DHT22;44257;44.804;10.220;2024-03-08T07:56:20;9.10;99.90
58469;DHT22;44257;44.804;10.220;2024-03-08T07:58:47;9.10;99.90
58469;DHT22;44257;44.804;10.220;2024-03-08T08:01:17;9.20;99.90
58469;DHT22;44257;44.804;10.220;2024-03-08T08:03:44;9.30;99.90
58469;DHT22;44257;44.804;10.220;2024-03-08T08:06:10;9.40;99.90
58469;DHT22;44257;44.804;10.220;2024-03-08T08:08:44;9.50;99.90
58469;DHT22;44257;44.804;10.220;2024-03-08T08:11:10;9.60;99.90
58469;DHT22;44257;44.804;10.220;2024-03-08T08:13:41;9.70;99.90
58469;DHT22;44257;44.804;10.220;2024-03-08T08:16:09;9.70;99.90
58469;DHT22;44257;44.804;10.220;2024-03-08T08:18:36;9.80;99.90
58469;DHT22;44257;44.804;10.220;2024-03-08T08:21:02;10.00;99.90
58469;DHT22;44257;44.804;10.220;2024-03-08T08:23:30;10.00;99.90
58469;DHT22;44257;44.804;10.220;2024-03-08T08:25:56;10.00;99.90
58469;DHT22;44257;44.804;10.220;2024-03-08T08:28:22;10.10;99.90
58469;DHT22;44257;44.804;10.220;2024-03-08T08:30:47;10.20;99.90
58469;DHT22;44257;44.804;10.220;2024-03-08T08:33:14;10.30;99.90
58469;DHT22;44257;44.804;10.220;2024-03-08T08:35:40;10.40;99.90
58469;DHT22;44257;44.804;10.220;2024-03-08T08:38:06;10.50;99.90
58469;DHT22;44257;44.804;10.220;2024-03-08T08:40:35;10.60;99.90
58469;DHT22;44257;44.804;10.220;2024-03-08T08:43:02;10.70;99.90
58469;DHT22;44257;44.804;10.220;2024-03-08T08:45:31;10.80;99.90
58469;DHT22;44257;44.804;10.220;2024-03-08T08:47:57;10.90;99.90
58469;DHT22;44257;44.804;10.220;2024-03-08T08:50:25;10.90;99.90
58469;DHT22;44257;44.804;10.220;2024-03-08T08:52:54;10.90;99.90
58469;DHT22;44257;44.804;10.220;2024-03-08T08:55:20;10.90;99.90
58469;DHT22;44257;44.804;10.220;2024-03-08T08:57:56;10.90;99.90
58469;DHT22;44257;44.804;10.220;2024-03-08T09:00:22;11.00;99.90
58469;DHT22;44257;44.804;10.220;2024-03-08T09:02:52;11.00;99.90
58469;DHT22;44257;44.804;10.220;2024-03-08T09:05:20;11.00;99.90
58469;DHT22;44257;44.804;10.220;2024-03-08T09:07:47;11.00;99.90
58469;DHT22;44257;44.804;10.220;2024-03-08T09:10:13;11.00;99.90
58469;DHT22;44257;44.804;10.220;2024-03-08T09:12:40;11.00;99.90
58469;DHT22;44257;44.804;10.220;2024-03-08T09:15:06;11.10;99.90
58469;DHT22;44257;44.804;10.220;2024-03-08T09:17:37;11.10;99.90
58469;DHT22;44257;44.804;10.220;2024-03-08T09:20:09;11.10;99.90
58469;DHT22;44257;44.804;10.220;2024-03-08T09:22:36;11.20;99.90
58469;DHT22;44257;44.804;10.220;2024-03-08T09:25:02;11.30;99.90
58469;DHT22;44257;44.804;10.220;2024-03-08T09:27:30;11.40;99.90
58469;DHT22;44257;44.804;10.220;2024-03-08T09:29:56;11.40;99.90
58469;DHT22;44257;44.804;10.220;2024-03-08T09:32:22;11.50;99.90
58469;DHT22;44257;44.804;10.220;2024-03-08T09:34:48;11.70;99.90
58469;DHT22;44257;44.804;10.220;2024-03-08T09:37:14;11.80;99.90
58469;DHT22;44257;44.804;10.220;2024-03-08T09:39:40;12.00;99.90
58469;DHT22;44257;44.804;10.220;2024-03-08T09:42:06;12.00;99.90
58469;DHT22;44257;44.804;10.220;2024-03-08T09:44:32;12.00;99.90
58469;DHT22;44257;44.804;10.220;2024-03-08T09:46:59;11.90;99.90
58469;DHT22;44257;44.804;10.220;2024-03-08T09:49:25;11.90;99.90
58469;DHT22;44257;44.804;10.220;2024-03-08T09:51:51;11.70;99.90
58469;DHT22;44257;44.804;10.220;2024-03-08T09:54:17;11.80;99.90
58469;DHT22;44257;44.804;10.220;2024-03-08T09:56:47;11.80;99.90
58469;DHT22;44257;44.804;10.220;2024-03-08T09:59:15;11.80;99.90
58469;DHT22;44257;44.804;10.220;2024-03-08T10:01:53;11.80;99.90
58469;DHT22;44257;44.804;10.220;2024-03-08T10:04:25;11.80;99.90
58469;DHT22;44257;44.804;10.220;2024-03-08T10:06:54;11.70;99.90
58469;DHT22;44257;44.804;10.220;2024-03-08T10:09:21;11.60;99.90
58469;DHT22;44257;44.804;10.220;2024-03-08T10:11:50;11.60;99.90
58469;DHT22;44257;44.804;10.220;2024-03-08T10:14:18;11.60;99.90
58469;DHT22;44257;44.804;10.220;2024-03-08T10:16:45;11.70;99.90
58469;DHT22;44257;44.804;10.220;2024-03-08T10:19:12;11.60;99.90
58469;DHT22;44257;44.804;10.220;2024-03-08T10:21:51;11.70;99.90
58469;DHT22;44257;44.804;10.220;2024-03-08T10:24:23;11.80;99.90
58469;DHT22;44257;44.804;10.220;2024-03-08T10:26:53;11.80;99.90
58469;DHT22;44257;44.804;10.220;2024-03-08T10:29:19;11.80;99.90
58469;DHT22;44257;44.804;10.220;2024-03-08T10:31:45;11.90;99.90
58469;DHT22;44257;44.804;10.220;2024-03-08T10:34:11;11.80;99.90
58469;DHT22;44257;44.804;10.220;2024-03-08T10:36:39;11.70;99.90
58469;DHT22;44257;44.804;10.220;2024-03-08T10:39:21;11.80;99.90
58469;DHT22;44257;44.804;10.220;2024-03-08T10:41:58;12.00;99.90
58469;DHT22;44257;44.804;10.220;2024-03-08T10:47:15;12.30;99.90
58469;DHT22;44257;44.804;10.220;2024-03-08T10:50:10;12.30;99.90
58469;DHT22;44257;44.804;10.220;2024-03-08T10:52:39;12.30;99.90
58469;DHT22;44257;44.804;10.220;2024-03-08T10:55:07;12.30;99.90
58469;DHT22;44257;44.804;10.220;2024-03-08T10:57:38;12.30;99.90
58469;DHT22;44257;44.804;10.220;2024-03-08T11:00:07;12.30;99.90
58469;DHT22;44257;44.804;10.220;2024-03-08T11:02:37;12.30;99.90
58469;DHT22;44257;44.804;10.220;2024-03-08T11:05:10;12.40;99.90
58469;DHT22;44257;44.804;10.220;2024-03-08T11:07:42;12.50;99.90
58469;DHT22;44257;44.804;10.220;2024-03-08T11:10:19;12.50;99.90
58469;DHT22;44257;44.804;10.220;2024-03-08T11:12:46;12.40;99.90
58469;DHT22;44257;44.804;10.220;2024-03-08T11:15:14;12.20;99.90
58469;DHT22;44257;44.804;10.220;2024-03-08T11:17:49;12.00;99.90
58469;DHT22;44257;44.804;10.220;2024-03-08T11:20:20;11.90;99.90
58469;DHT22;44257;44.804;10.220;2024-03-08T11:23:00;11.80;99.90
58469;DHT22;44257;44.804;10.220;2024-03-08T11:28:13;11.60;99.90
58469;DHT22;44257;44.804;10.220;2024-03-08T11:33:30;11.60;99.90
58469;DHT22;44257;44.804;10.220;2024-03-08T11:36:10;11.60;99.90
58469;DHT22;44257;44.804;10.220;2024-03-08T11:38:43;11.60;99.90
58469;DHT22;44257;44.804;10.220;2024-03-08T11:41:10;11.60;99.90
58469;DHT22;44257;44.804;10.220;2024-03-08T11:43:43;11.70;99.90
58469;DHT22;44257;44.804;10.220;2024-03-08T11:46:12;11.80;99.90
58469;DHT22;44257;44.804;10.220;2024-03-08T11:48:39;12.00;99.90
58469;DHT22;44257;44.804;10.220;2024-03-08T11:51:08;12.10;99.90
58469;DHT22;44257;44.804;10.220;2024-03-08T11:53:34;12.10;99.90
58469;DHT22;44257;44.804;10.220;2024-03-08T11:56:09;12.10;99.90
58469;DHT22;44257;44.804;10.220;2024-03-08T11:58:35;12.10;99.90
58469;DHT22;44257;44.804;10.220;2024-03-08T12:01:04;12.10;99.90
58469;DHT22;44257;44.804;10.220;2024-03-08T12:03:31;12.10;99.90
58469;DHT22;44257;44.804;10.220;2024-03-08T12:06:01;12.00;99.90
58469;DHT22;44257;44.804;10.220;2024-03-08T12:08:30;11.80;99.90
58469;DHT22;44257;44.804;10.220;2024-03-08T12:10:58;11.70;99.90
58469;DHT22;44257;44.804;10.220;2024-03-08T12:13:28;11.60;99.90
58469;DHT22;44257;44.804;10.220;2024-03-08T12:15:58;11.60;99.90
58469;DHT22;44257;44.804;10.220;2024-03-08T12:18:28;11.60;99.90
58469;DHT22;44257;44.804;10.220;2024-03-08T12:23:36;11.60;99.90
58469;DHT22;44257;44.804;10.220;2024-03-08T12:26:13;11.60;99.90
58469;DHT22;44257;44.804;10.220;2024-03-08T12:28:40;11.70;99.90
58469;DHT22;44257;44.804;10.220;2024-03-08T12:31:09;11.80;99.90
58469;DHT22;44257;44.804;10.220;2024-03-08T12:33:55;11.90;99.90
58469;DHT22;44257;44.804;10.220;2024-03-08T12:36:25;11.90;99.90
58469;DHT22;44257;44.804;10.220;2024-03-08T12:38:52;11.80;99.90
58469;DHT22;44257;44.804;10.220;2024-03-08T12:41:20;11.70;99.90
58469;DHT22;44257;44.804;10.220;2024-03-08T12:43:47;11.60;99.90
58469;DHT22;44257;44.804;10.220;2024-03-08T12:46:17;11.60;99.90
58469;DHT22;44257;44.804;10.220;2024-03-08T12:48:45;11.60;99.90
58469;DHT22;44257;44.804;10.220;2024-03-08T12:51:21;11.60;99.90
58469;DHT22;44257;44.804;10.220;2024-03-08T12:53:47;11.50;99.90
58469;DHT22;44257;44.804;10.220;2024-03-08T12:56:15;11.40;99.90
58469;DHT22;44257;44.804;10.220;2024-03-08T12:58:45;11.30;99.90
58469;DHT22;44257;44.804;10.220;2024-03-08T13:01:11;11.30;99.90
58469;DHT22;44257;44.804;10.220;2024-03-08T13:03:37;11.20;99.90
58469;DHT22;44257;44.804;10.220;2024-03-08T13:06:05;11.20;99.90
58469;DHT22;44257;44.804;10.220;2024-03-08T13:08:43;11.20;99.90
58469;DHT22;44257;44.804;10.220;2024-03-08T13:11:10;11.20;99.90
58469;DHT22;44257;44.804;10.220;2024-03-08T13:13:40;11.30;99.90
58469;DHT22;44257;44.804;10.220;2024-03-08T13:16:07;11.40;99.90
58469;DHT22;44257;44.804;10.220;2024-03-08T13:18:35;11.50;99.90
58469;DHT22;44257;44.804;10.220;2024-03-08T13:21:00;11.50;99.90
58469;DHT22;44257;44.804;10.220;2024-03-08T13:23:36;11.50;99.90
58469;DHT22;44257;44.804;10.220;2024-03-08T13:26:09;11.50;99.90
58469;DHT22;44257;44.804;10.220;2024-03-08T13:28:46;11.30;99.90
58469;DHT22;44257;44.804;10.220;2024-03-08T13:31:14;11.20;99.90
58469;DHT22;44257;44.804;10.220;2024-03-08T13:33:41;11.10;99.90
58469;DHT22;44257;44.804;10.220;2024-03-08T13:36:10;11.10;99.90
58469;DHT22;44257;44.804;10.220;2024-03-08T13:38:43;11.10;99.90
58469;DHT22;44257;44.804;10.220;2024-03-08T13:41:12;11.20;99.90
58469;DHT22;44257;44.804;10.220;2024-03-08T13:43:46;11.30;99.90
58469;DHT22;44257;44.804;10.220;2024-03-08T13:46:12;11.30;99.90
58469;DHT22;44257;44.804;10.220;2024-03-08T13:48:38;11.30;99.90
58469;DHT22;44257;44.804;10.220;2024-03-08T13:51:07;11.30;99.90
58469;DHT22;44257;44.804;10.220;2024-03-08T13:53:36;11.30;99.90
58469;DHT22;44257;44.804;10.220;2024-03-08T13:56:02;11.20;99.90
58469;DHT22;44257;44.804;10.220;2024-03-08T13:58:29;11.10;99.90
58469;DHT22;44257;44.804;10.220;2024-03-08T14:00:54;11.00;99.90
58469;DHT22;44257;44.804;10.220;2024-03-08T14:03:21;11.00;99.90
58469;DHT22;44257;44.804;10.220;2024-03-08T14:05:47;11.00;99.90
58469;DHT22;44257;44.804;10.220;2024-03-08T14:08:13;11.00;99.90
58469;DHT22;44257;44.804;10.220;2024-03-08T14:10:39;11.00;99.90
58469;DHT22;44257;44.804;10.220;2024-03-08T14:13:06;11.00;99.90
58469;DHT22;44257;44.804;10.220;2024-03-08T14:15:32;11.10;99.90
58469;DHT22;44257;44.804;10.220;2024-03-08T14:17:59;11.10;99.90
58469;DHT22;44257;44.804;10.220;2024-03-08T14:20:25;11.10;99.90
58469;DHT22;44257;44.804;10.220;2024-03-08T14:22:52;11.00;99.90
58469;DHT22;44257;44.804;10.220;2024-03-08T14:25:18;11.00;99.90
58469;DHT22;44257;44.804;10.220;2024-03-08T14:27:45;10.90;99.90
58469;DHT22;44257;44.804;10.220;2024-03-08T14:30:13;10.90;99.90
58469;DHT22;44257;44.804;10.220;2024-03-08T14:32:40;10.80;99.90
58469;DHT22;44257;44.804;10.220;2024-03-08T14:35:07;10.80;99.90
58469;DHT22;44257;44.804;10.220;2024-03-08T14:37:33;10.80;99.90
58469;DHT22;44257;44.804;10.220;2024-03-08T14:39:59;10.80;99.90
58469;DHT22;44257;44.804;10.220;2024-03-08T14:42:25;10.80;99.90
58469;DHT22;44257;44.804;10.220;2024-03-08T14:44:51;10.80;99.90
58469;DHT22;44257;44.804;10.220;2024-03-08T14:47:19;10.80;99.90
58469;DHT22;44257;44.804;10.220;2024-03-08T14:49:45;10.80;99.90
58469;DHT22;44257;44.804;10.220;2024-03-08T14:52:14;10.70;99.90
58469;DHT22;44257;44.804;10.220;2024-03-08T14:55:00;10.70;99.90
58469;DHT22;44257;44.804;10.220;2024-03-08T14:57:28;10.70;99.90
58469;DHT22;44257;44.804;10.220;2024-03-08T14:59:58;10.80;99.90
58469;DHT22;44257;44.804;10.220;2024-03-08T15:02:42;10.80;99.90
58469;DHT22;44257;44.804;10.220;2024-03-08T15:05:08;10.90;99.90
58469;DHT22;44257;44.804;10.220;2024-03-08T15:07:47;10.80;99.90
58469;DHT22;44257;44.804;10.220;2024-03-08T15:10:13;10.80;99.90
58469;DHT22;44257;44.804;10.220;2024-03-08T15:12:45;10.70;99.90
58469;DHT22;44257;44.804;10.220;2024-03-08T15:15:12;10.70;99.90
58469;DHT22;44257;44.804;10.220;2024-03-08T15:17:43;10.60;99.90
58469;DHT22;44257;44.804;10.220;2024-03-08T15:20:13;10.50;99.90
58469;DHT22;44257;44.804;10.220;2024-03-08T15:22:46;10.40;99.90
58469;DHT22;44257;44.804;10.220;2024-03-08T15:25:12;10.40;99.90
58469;DHT22;44257;44.804;10.220;2024-03-08T15:27:49;10.50;99.90
58469;DHT22;44257;44.804;10.220;2024-03-08T15:30:15;10.50;99.90
58469;DHT22;44257;44.804;10.220;2024-03-08T15:32:49;10.50;99.90
58469;DHT22;44257;44.804;10.220;2024-03-08T15:35:23;10.40;99.90
58469;DHT22;44257;44.804;10.220;2024-03-08T15:37:49;10.40;99.90
58469;DHT22;44257;44.804;10.220;2024-03-08T15:40:15;10.30;99.90
58469;DHT22;44257;44.804;10.220;2024-03-08T15:45:17;10.20;99.90